createdAt,value
2022-11-29T00:00:03.772Z,975.74
2022-11-29T00:01:02.937Z,975.69
2022-11-29T00:02:04.168Z,975.74
2022-11-29T00:03:03.628Z,975.66
2022-11-29T00:04:03.410Z,975.69
2022-11-29T00:05:03.354Z,975.72
2022-11-29T00:06:03.489Z,975.77
2022-11-29T00:07:03.530Z,975.69
2022-11-29T00:08:03.610Z,975.74
2022-11-29T00:09:03.546Z,975.77
2022-11-29T00:10:03.636Z,975.72
2022-11-29T00:11:03.650Z,975.77
2022-11-29T00:12:03.561Z,975.69
2022-11-29T00:13:03.670Z,975.74
2022-11-29T00:14:03.622Z,975.63
2022-11-29T00:15:03.584Z,975.66
2022-11-29T00:16:03.551Z,975.80
2022-11-29T00:17:03.680Z,975.77
2022-11-29T00:18:03.574Z,975.69
2022-11-29T00:19:03.420Z,975.71
2022-11-29T00:20:03.411Z,975.66
2022-11-29T00:21:03.462Z,975.69
2022-11-29T00:22:03.455Z,975.66
2022-11-29T00:23:03.431Z,975.77
2022-11-29T00:24:03.415Z,975.66
2022-11-29T00:25:03.396Z,975.66
2022-11-29T00:26:03.353Z,975.60
2022-11-29T00:27:03.155Z,975.71
2022-11-29T00:28:03.162Z,975.49
2022-11-29T00:29:02.988Z,975.57
2022-11-29T00:30:03.212Z,975.57
2022-11-29T00:31:03.423Z,975.54
2022-11-29T00:32:03.351Z,975.55
2022-11-29T00:33:03.437Z,975.55
2022-11-29T00:34:03.286Z,975.66
2022-11-29T00:35:09.889Z,975.46
2022-11-29T00:36:03.327Z,975.46
2022-11-29T00:37:03.266Z,975.63
2022-11-29T00:38:03.368Z,975.60
2022-11-29T00:39:03.203Z,975.43
2022-11-29T00:40:03.167Z,975.43
2022-11-29T00:41:03.126Z,975.52
2022-11-29T00:42:03.132Z,975.54
2022-11-29T00:43:03.167Z,975.54
2022-11-29T00:44:03.106Z,975.54
2022-11-29T00:45:03.027Z,975.46
2022-11-29T00:46:02.968Z,975.60
2022-11-29T00:47:03.044Z,975.65
2022-11-29T00:48:02.992Z,975.43
2022-11-29T00:49:03.065Z,975.46
2022-11-29T00:50:03.101Z,975.49
2022-11-29T00:51:03.003Z,975.49
2022-11-29T00:52:02.955Z,975.43
2022-11-29T00:53:03.064Z,975.46
2022-11-29T00:54:03.114Z,975.54
2022-11-29T00:55:02.985Z,975.46
2022-11-29T00:56:03.031Z,975.49
2022-11-29T00:57:03.110Z,975.60
2022-11-29T00:58:03.228Z,975.57
2022-11-29T00:59:03.237Z,975.46
2022-11-29T01:00:03.191Z,975.48
2022-11-29T01:01:03.206Z,975.43
2022-11-29T01:02:03.171Z,975.54
2022-11-29T01:03:03.038Z,975.54
2022-11-29T01:04:03.912Z,975.60
2022-11-29T01:05:03.755Z,975.65
2022-11-29T01:06:02.921Z,975.59
2022-11-29T01:07:03.784Z,975.62
2022-11-29T01:08:03.842Z,975.65
2022-11-29T01:09:03.829Z,975.54
2022-11-29T01:10:04.179Z,975.57
2022-11-29T01:11:03.117Z,975.43
2022-11-29T01:12:03.023Z,975.48
2022-11-29T01:13:02.967Z,975.59
2022-11-29T01:14:03.799Z,975.71
2022-11-29T01:15:02.864Z,975.45
2022-11-29T01:16:03.784Z,975.62
2022-11-29T01:17:03.930Z,975.65
2022-11-29T01:18:03.868Z,975.62
2022-11-29T01:19:03.782Z,975.68
2022-11-29T01:20:03.677Z,975.73
2022-11-29T01:21:03.671Z,975.73
2022-11-29T01:22:03.608Z,975.59
2022-11-29T01:23:03.707Z,975.65
2022-11-29T01:24:03.607Z,975.54
2022-11-29T01:25:03.715Z,975.68
2022-11-29T01:26:03.701Z,975.68
2022-11-29T01:27:03.790Z,975.68
2022-11-29T01:28:03.727Z,975.65
2022-11-29T01:29:03.805Z,975.68
2022-11-29T01:30:03.186Z,975.68
2022-11-29T01:31:03.312Z,975.65
2022-11-29T01:32:03.072Z,975.62
2022-11-29T01:33:03.054Z,975.62
2022-11-29T01:34:03.060Z,975.56
2022-11-29T01:35:03.120Z,975.65
2022-11-29T01:36:03.107Z,975.59
2022-11-29T01:37:03.176Z,975.59
2022-11-29T01:38:03.202Z,975.56
2022-11-29T01:39:03.097Z,975.56
2022-11-29T01:40:03.202Z,975.53
2022-11-29T01:41:03.054Z,975.56
2022-11-29T01:42:03.015Z,975.59
2022-11-29T01:43:02.910Z,975.67
2022-11-29T01:44:03.064Z,975.59
2022-11-29T01:45:02.910Z,975.65
2022-11-29T01:46:03.066Z,975.56
2022-11-29T01:47:02.927Z,975.59
2022-11-29T01:48:02.954Z,975.62
2022-11-29T01:49:03.772Z,975.53
2022-11-29T01:50:03.776Z,975.65
2022-11-29T01:51:03.768Z,975.51
2022-11-29T01:52:02.879Z,975.67
2022-11-29T01:53:03.796Z,975.56
2022-11-29T01:54:03.844Z,975.45
2022-11-29T01:55:04.159Z,975.56
2022-11-29T01:56:03.953Z,975.65
2022-11-29T01:57:02.876Z,975.50
2022-11-29T01:58:02.844Z,975.62
2022-11-29T01:59:03.815Z,975.73
2022-11-29T02:00:02.965Z,975.62
2022-11-29T02:01:03.088Z,975.62
2022-11-29T02:02:02.853Z,975.59
2022-11-29T02:03:03.884Z,975.45
2022-11-29T02:04:03.895Z,975.51
2022-11-29T02:05:03.820Z,975.53
2022-11-29T02:06:03.775Z,975.51
2022-11-29T02:07:03.736Z,975.51
2022-11-29T02:08:03.778Z,975.51
2022-11-29T02:09:03.814Z,975.51
2022-11-29T02:10:03.765Z,975.48
2022-11-29T02:11:03.764Z,975.48
2022-11-29T02:12:02.954Z,975.48
2022-11-29T02:13:02.881Z,975.42
2022-11-29T02:14:03.936Z,975.51
2022-11-29T02:15:03.852Z,975.51
2022-11-29T02:16:03.972Z,975.54
2022-11-29T02:17:03.784Z,975.59
2022-11-29T02:18:03.124Z,975.48
2022-11-29T02:19:03.218Z,975.48
2022-11-29T02:20:03.227Z,975.37
2022-11-29T02:21:03.182Z,975.42
2022-11-29T02:22:03.189Z,975.51
2022-11-29T02:23:03.196Z,975.45
2022-11-29T02:24:03.216Z,975.54
2022-11-29T02:25:03.030Z,975.48
2022-11-29T02:26:02.953Z,975.45
2022-11-29T02:27:03.378Z,975.48
2022-11-29T02:28:03.465Z,975.59
2022-11-29T02:29:03.460Z,975.54
2022-11-29T02:30:03.509Z,975.59
2022-11-29T02:31:03.690Z,975.45
2022-11-29T02:32:03.606Z,975.59
2022-11-29T02:33:03.624Z,975.48
2022-11-29T02:34:02.867Z,975.48
2022-11-29T02:35:02.984Z,975.62
2022-11-29T02:36:02.940Z,975.56
2022-11-29T02:37:11.738Z,975.62
2022-11-29T02:38:03.741Z,975.45
2022-11-29T02:39:03.778Z,975.56
2022-11-29T02:40:03.800Z,975.39
2022-11-29T02:41:03.790Z,975.51
2022-11-29T02:42:03.813Z,975.37
2022-11-29T02:43:03.775Z,975.56
2022-11-29T02:44:03.752Z,975.48
2022-11-29T02:45:03.621Z,975.51
2022-11-29T02:46:03.793Z,975.59
2022-11-29T02:47:03.536Z,975.51
2022-11-29T02:48:03.521Z,975.53
2022-11-29T02:49:03.708Z,975.48
2022-11-29T02:50:03.598Z,975.59
2022-11-29T02:51:03.781Z,975.65
2022-11-29T02:52:03.661Z,975.65
2022-11-29T02:53:03.670Z,975.81
2022-11-29T02:54:03.618Z,975.67
2022-11-29T02:55:03.561Z,975.65
2022-11-29T02:56:03.668Z,975.70
2022-11-29T02:57:03.541Z,975.65
2022-11-29T02:58:03.466Z,975.73
2022-11-29T02:59:03.411Z,975.62
2022-11-29T03:00:03.414Z,975.70
2022-11-29T03:01:03.613Z,975.67
2022-11-29T03:02:03.573Z,975.59
2022-11-29T03:03:03.394Z,975.70
2022-11-29T03:04:03.386Z,975.93
2022-11-29T03:05:03.285Z,975.79
2022-11-29T03:06:03.228Z,975.79
2022-11-29T03:07:03.200Z,975.79
2022-11-29T03:08:03.066Z,975.81
2022-11-29T03:09:03.090Z,975.81
2022-11-29T03:10:03.090Z,975.81
2022-11-29T03:11:03.093Z,975.79
2022-11-29T03:12:03.033Z,975.73
2022-11-29T03:13:02.967Z,975.90
2022-11-29T03:14:02.964Z,975.73
2022-11-29T03:15:02.890Z,975.73
2022-11-29T03:16:03.038Z,975.73
2022-11-29T03:17:02.890Z,975.73
2022-11-29T03:18:02.976Z,975.76
2022-11-29T03:19:02.989Z,975.67
2022-11-29T03:20:03.809Z,975.73
2022-11-29T03:21:02.865Z,975.78
2022-11-29T03:22:03.079Z,975.70
2022-11-29T03:23:02.847Z,975.78
2022-11-29T03:24:02.895Z,975.76
2022-11-29T03:25:03.838Z,975.78
2022-11-29T03:26:03.845Z,975.81
2022-11-29T03:27:03.897Z,975.78
2022-11-29T03:28:03.833Z,975.67
2022-11-29T03:29:03.772Z,975.81
2022-11-29T03:30:03.712Z,975.67
2022-11-29T03:31:03.728Z,975.73
2022-11-29T03:32:03.640Z,975.84
2022-11-29T03:33:03.498Z,975.73
2022-11-29T03:34:03.462Z,975.78
2022-11-29T03:35:03.519Z,975.81
2022-11-29T03:36:03.411Z,975.73
2022-11-29T03:37:03.526Z,975.84
2022-11-29T03:38:03.549Z,975.73
2022-11-29T03:39:03.480Z,975.90
2022-11-29T03:40:03.664Z,975.78
2022-11-29T03:41:03.743Z,975.73
2022-11-29T03:42:03.636Z,975.95
2022-11-29T03:43:03.711Z,975.92
2022-11-29T03:44:03.623Z,975.87
2022-11-29T03:45:03.788Z,975.90
2022-11-29T03:46:03.812Z,975.87
2022-11-29T03:47:03.674Z,975.93
2022-11-29T03:48:03.671Z,975.87
2022-11-29T03:49:03.895Z,975.81
2022-11-29T03:50:03.707Z,975.84
2022-11-29T03:51:03.567Z,975.87
2022-11-29T03:52:03.678Z,975.92
2022-11-29T03:53:03.525Z,975.87
2022-11-29T03:54:03.464Z,975.90
2022-11-29T03:55:03.545Z,975.78
2022-11-29T03:56:03.478Z,975.93
2022-11-29T03:57:03.583Z,975.92
2022-11-29T03:58:03.491Z,975.90
2022-11-29T03:59:03.574Z,975.67
2022-11-29T04:00:03.619Z,975.78
2022-11-29T04:01:03.432Z,975.70
2022-11-29T04:02:03.463Z,975.98
2022-11-29T04:03:03.519Z,975.87
2022-11-29T04:04:03.366Z,975.81
2022-11-29T04:05:03.281Z,975.64
2022-11-29T04:06:03.156Z,975.67
2022-11-29T04:07:03.236Z,975.81
2022-11-29T04:08:03.283Z,975.76
2022-11-29T04:09:03.164Z,975.70
2022-11-29T04:10:03.328Z,975.87
2022-11-29T04:11:02.989Z,975.81
2022-11-29T04:12:02.956Z,975.84
2022-11-29T04:13:02.918Z,975.78
2022-11-29T04:14:02.994Z,975.90
2022-11-29T04:15:02.973Z,975.81
2022-11-29T04:16:03.923Z,975.81
2022-11-29T04:17:03.821Z,975.81
2022-11-29T04:18:03.827Z,975.84
2022-11-29T04:19:03.866Z,975.70
2022-11-29T04:20:03.866Z,975.75
2022-11-29T04:21:03.804Z,975.84
2022-11-29T04:22:03.790Z,975.81
2022-11-29T04:23:03.668Z,975.70
2022-11-29T04:24:03.592Z,975.70
2022-11-29T04:25:03.551Z,975.70
2022-11-29T04:26:03.477Z,975.70
2022-11-29T04:27:03.509Z,975.84
2022-11-29T04:28:03.544Z,975.78
2022-11-29T04:29:03.631Z,975.84
2022-11-29T04:30:03.520Z,975.81
2022-11-29T04:31:03.477Z,975.78
2022-11-29T04:32:03.338Z,976.01
2022-11-29T04:33:03.355Z,975.89
2022-11-29T04:34:03.206Z,975.89
2022-11-29T04:35:03.170Z,975.92
2022-11-29T04:36:03.137Z,975.89
2022-11-29T04:37:03.436Z,976.03
2022-11-29T04:38:03.414Z,976.01
2022-11-29T04:39:03.413Z,975.86
2022-11-29T04:40:03.261Z,975.92
2022-11-29T04:41:03.312Z,975.89
2022-11-29T04:42:03.277Z,975.86
2022-11-29T04:43:03.346Z,975.95
2022-11-29T04:44:03.192Z,975.92
2022-11-29T04:45:03.300Z,975.98
2022-11-29T04:46:03.257Z,975.86
2022-11-29T04:47:03.085Z,975.98
2022-11-29T04:48:03.033Z,975.92
2022-11-29T04:49:02.950Z,976.03
2022-11-29T04:50:02.924Z,975.86
2022-11-29T04:51:03.036Z,975.86
2022-11-29T04:52:02.983Z,975.86
2022-11-29T04:53:03.819Z,975.92
2022-11-29T04:54:03.796Z,975.92
2022-11-29T04:55:03.970Z,975.89
2022-11-29T04:56:03.883Z,975.92
2022-11-29T04:57:03.731Z,975.92
2022-11-29T04:58:03.763Z,975.89
2022-11-29T04:59:03.698Z,976.01
2022-11-29T05:00:03.791Z,975.98
2022-11-29T05:01:03.750Z,976.03
2022-11-29T05:02:03.695Z,976.06
2022-11-29T05:03:03.705Z,976.01
2022-11-29T05:04:03.679Z,975.92
2022-11-29T05:05:03.481Z,975.98
2022-11-29T05:06:03.668Z,976.06
2022-11-29T05:07:03.771Z,976.01
2022-11-29T05:08:03.626Z,976.15
2022-11-29T05:09:03.617Z,976.09
2022-11-29T05:10:03.608Z,976.06
2022-11-29T05:11:03.637Z,976.15
2022-11-29T05:12:03.736Z,976.12
2022-11-29T05:13:03.762Z,976.06
2022-11-29T05:14:03.739Z,976.15
2022-11-29T05:15:03.675Z,975.95
2022-11-29T05:16:03.733Z,975.98
2022-11-29T05:17:03.580Z,975.98
2022-11-29T05:18:03.609Z,976.09
2022-11-29T05:19:03.613Z,976.03
2022-11-29T05:20:03.553Z,976.09
2022-11-29T05:21:03.572Z,976.20
2022-11-29T05:22:03.622Z,976.17
2022-11-29T05:23:03.538Z,976.09
2022-11-29T05:24:03.493Z,976.15
2022-11-29T05:25:03.656Z,976.15
2022-11-29T05:26:03.586Z,976.09
2022-11-29T05:27:03.618Z,975.92
2022-11-29T05:28:10.151Z,975.95
2022-11-29T05:29:04.003Z,975.95
2022-11-29T05:30:03.528Z,976.00
2022-11-29T05:31:03.711Z,976.23
2022-11-29T05:32:03.511Z,976.06
2022-11-29T05:33:03.523Z,976.09
2022-11-29T05:34:03.555Z,976.03
2022-11-29T05:35:03.577Z,976.20
2022-11-29T05:36:03.620Z,976.26
2022-11-29T05:37:03.594Z,976.15
2022-11-29T05:38:03.511Z,976.15
2022-11-29T05:39:03.419Z,976.23
2022-11-29T05:40:03.466Z,976.20
2022-11-29T05:41:03.492Z,976.23
2022-11-29T05:42:03.452Z,976.17
2022-11-29T05:43:03.366Z,976.23
2022-11-29T05:44:03.291Z,976.26
2022-11-29T05:45:03.221Z,976.34
2022-11-29T05:46:03.387Z,976.17
2022-11-29T05:47:03.125Z,976.32
2022-11-29T05:48:03.009Z,976.29
2022-11-29T05:49:03.167Z,976.34
2022-11-29T05:50:03.200Z,976.20
2022-11-29T05:51:03.305Z,976.34
2022-11-29T05:52:03.156Z,976.17
2022-11-29T05:53:03.119Z,976.40
2022-11-29T05:54:03.117Z,976.32
2022-11-29T05:55:03.046Z,976.46
2022-11-29T05:56:03.144Z,976.34
2022-11-29T05:57:02.991Z,976.48
2022-11-29T05:58:03.021Z,976.34
2022-11-29T05:59:03.870Z,976.26
2022-11-29T06:00:02.947Z,976.40
2022-11-29T06:01:03.858Z,976.34
2022-11-29T06:02:03.844Z,976.34
2022-11-29T06:03:04.101Z,976.48
2022-11-29T06:04:03.811Z,976.43
2022-11-29T06:05:02.853Z,976.57
2022-11-29T06:06:03.788Z,976.54
2022-11-29T06:07:03.673Z,976.43
2022-11-29T06:08:03.688Z,976.46
2022-11-29T06:09:03.533Z,976.46
2022-11-29T06:10:03.923Z,976.51
2022-11-29T06:11:02.979Z,976.43
2022-11-29T06:12:02.983Z,976.57
2022-11-29T06:13:02.908Z,976.43
2022-11-29T06:14:03.850Z,976.46
2022-11-29T06:15:03.827Z,976.57
2022-11-29T06:16:03.957Z,976.51
2022-11-29T06:17:03.776Z,976.40
2022-11-29T06:18:03.839Z,976.49
2022-11-29T06:19:03.815Z,976.43
2022-11-29T06:20:03.845Z,976.43
2022-11-29T06:21:03.802Z,976.54
2022-11-29T06:22:03.794Z,976.54
2022-11-29T06:23:03.737Z,976.51
2022-11-29T06:24:03.822Z,976.63
2022-11-29T06:25:02.878Z,976.63
2022-11-29T06:26:04.668Z,976.54
2022-11-29T06:27:03.907Z,976.66
2022-11-29T06:28:03.716Z,976.71
2022-11-29T06:29:03.828Z,976.66
2022-11-29T06:30:02.864Z,976.63
2022-11-29T06:31:02.995Z,976.57
2022-11-29T06:32:03.896Z,976.60
2022-11-29T06:33:02.943Z,976.43
2022-11-29T06:34:03.823Z,976.60
2022-11-29T06:35:03.767Z,976.54
2022-11-29T06:36:03.865Z,976.57
2022-11-29T06:37:03.816Z,976.57
2022-11-29T06:38:02.880Z,976.68
2022-11-29T06:39:03.784Z,976.60
2022-11-29T06:40:02.921Z,976.63
2022-11-29T06:41:03.025Z,976.57
2022-11-29T06:42:03.864Z,976.66
2022-11-29T06:43:03.697Z,976.76
2022-11-29T06:44:03.694Z,976.71
2022-11-29T06:45:03.623Z,976.54
2022-11-29T06:46:03.540Z,976.63
2022-11-29T06:47:03.601Z,976.68
2022-11-29T06:48:03.386Z,976.66
2022-11-29T06:49:03.401Z,976.71
2022-11-29T06:50:03.396Z,976.63
2022-11-29T06:51:03.336Z,976.71
2022-11-29T06:52:03.384Z,976.79
2022-11-29T06:53:03.354Z,976.68
2022-11-29T06:54:03.270Z,976.74
2022-11-29T06:55:03.277Z,976.66
2022-11-29T06:56:03.162Z,976.76
2022-11-29T06:57:03.189Z,976.79
2022-11-29T06:58:03.136Z,976.76
2022-11-29T06:59:02.960Z,976.87
2022-11-29T07:00:02.962Z,976.74
2022-11-29T07:01:03.917Z,976.71
2022-11-29T07:02:04.044Z,976.74
2022-11-29T07:03:02.929Z,976.79
2022-11-29T07:04:03.824Z,976.79
2022-11-29T07:05:03.818Z,976.76
2022-11-29T07:06:03.735Z,976.93
2022-11-29T07:07:03.809Z,976.71
2022-11-29T07:08:03.864Z,976.84
2022-11-29T07:09:03.656Z,976.84
2022-11-29T07:10:03.795Z,976.79
2022-11-29T07:11:03.812Z,976.74
2022-11-29T07:12:03.708Z,976.90
2022-11-29T07:13:03.813Z,976.90
2022-11-29T07:14:02.901Z,976.98
2022-11-29T07:15:03.903Z,976.93
2022-11-29T07:16:03.822Z,977.04
2022-11-29T07:17:03.713Z,977.01
2022-11-29T07:18:03.699Z,977.04
2022-11-29T07:19:03.643Z,977.01
2022-11-29T07:20:03.572Z,977.07
2022-11-29T07:21:03.556Z,977.01
2022-11-29T07:22:03.424Z,976.98
2022-11-29T07:23:03.473Z,977.04
2022-11-29T07:24:03.527Z,977.01
2022-11-29T07:25:03.484Z,976.92
2022-11-29T07:26:03.323Z,976.98
2022-11-29T07:27:03.244Z,977.01
2022-11-29T07:28:03.509Z,976.92
2022-11-29T07:29:03.002Z,976.92
2022-11-29T07:30:03.060Z,976.95
2022-11-29T07:31:03.165Z,976.84
2022-11-29T07:32:03.124Z,976.95
2022-11-29T07:33:03.139Z,976.78
2022-11-29T07:34:03.141Z,976.98
2022-11-29T07:35:03.121Z,976.98
2022-11-29T07:36:03.088Z,977.03
2022-11-29T07:37:03.055Z,977.01
2022-11-29T07:38:02.942Z,977.01
2022-11-29T07:39:02.941Z,977.03
2022-11-29T07:40:03.840Z,977.09
2022-11-29T07:41:03.828Z,977.03
2022-11-29T07:42:03.728Z,977.14
2022-11-29T07:43:03.702Z,977.00
2022-11-29T07:44:03.768Z,977.06
2022-11-29T07:45:03.737Z,977.06
2022-11-29T07:46:03.644Z,977.09
2022-11-29T07:47:03.763Z,977.00
2022-11-29T07:48:03.722Z,977.03
2022-11-29T07:49:03.682Z,977.09
2022-11-29T07:50:03.750Z,977.09
2022-11-29T07:51:03.670Z,977.14
2022-11-29T07:52:03.831Z,977.17
2022-11-29T07:53:03.736Z,977.03
2022-11-29T07:54:03.639Z,977.03
2022-11-29T07:55:03.525Z,976.94
2022-11-29T07:56:03.542Z,977.08
2022-11-29T07:57:03.476Z,977.08
2022-11-29T07:58:03.324Z,977.11
2022-11-29T07:59:03.481Z,977.03
2022-11-29T08:00:03.313Z,977.00
2022-11-29T08:01:03.550Z,976.97
2022-11-29T08:02:11.764Z,977.11
2022-11-29T08:03:03.338Z,977.02
2022-11-29T08:04:03.398Z,977.16
2022-11-29T08:05:03.382Z,977.11
2022-11-29T08:06:03.295Z,977.02
2022-11-29T08:07:03.227Z,977.13
2022-11-29T08:08:03.236Z,977.08
2022-11-29T08:09:03.306Z,977.08
2022-11-29T08:10:03.241Z,977.08
2022-11-29T08:11:03.240Z,977.13
2022-11-29T08:12:03.288Z,977.08
2022-11-29T08:13:03.169Z,977.13
2022-11-29T08:14:03.184Z,977.10
2022-11-29T08:15:03.023Z,977.07
2022-11-29T08:16:03.021Z,977.13
2022-11-29T08:17:02.968Z,977.24
2022-11-29T08:18:02.936Z,977.07
2022-11-29T08:19:03.840Z,977.13
2022-11-29T08:20:04.819Z,977.21
2022-11-29T08:21:03.845Z,977.21
2022-11-29T08:22:03.768Z,977.24
2022-11-29T08:23:03.681Z,977.18
2022-11-29T08:24:03.750Z,977.24
2022-11-29T08:25:03.763Z,977.10
2022-11-29T08:26:03.741Z,977.35
2022-11-29T08:27:03.721Z,977.24
2022-11-29T08:28:03.680Z,977.29
2022-11-29T08:29:03.789Z,977.21
2022-11-29T08:30:03.729Z,977.29
2022-11-29T08:31:03.751Z,977.26
2022-11-29T08:32:03.782Z,977.23
2022-11-29T08:33:03.598Z,977.34
2022-11-29T08:34:03.487Z,977.26
2022-11-29T08:35:02.938Z,977.23
2022-11-29T08:36:03.830Z,977.26
2022-11-29T08:37:03.661Z,977.32
2022-11-29T08:38:03.552Z,977.31
2022-11-29T08:39:09.820Z,977.31
2022-11-29T08:40:03.428Z,977.29
2022-11-29T08:41:03.484Z,977.37
2022-11-29T08:42:03.493Z,977.26
2022-11-29T08:43:03.570Z,977.37
2022-11-29T08:44:03.509Z,977.26
2022-11-29T08:45:03.538Z,977.42
2022-11-29T08:46:03.618Z,977.25
2022-11-29T08:47:03.537Z,977.39
2022-11-29T08:48:03.402Z,977.31
2022-11-29T08:49:03.645Z,977.45
2022-11-29T08:50:03.582Z,977.22
2022-11-29T08:51:03.477Z,977.45
2022-11-29T08:52:03.377Z,977.39
2022-11-29T08:53:03.435Z,977.42
2022-11-29T08:54:03.366Z,977.45
2022-11-29T08:55:03.821Z,977.50
2022-11-29T08:57:04.850Z,977.42
2022-11-29T08:57:40.649Z,977.53
2022-11-29T08:58:03.703Z,977.56
2022-11-29T08:59:03.691Z,977.47
2022-11-29T09:00:03.716Z,977.53
2022-11-29T09:01:03.800Z,977.50
2022-11-29T09:02:03.671Z,977.44
2022-11-29T09:03:03.619Z,977.58
2022-11-29T09:04:03.507Z,977.53
2022-11-29T09:05:03.424Z,977.44
2022-11-29T09:06:11.910Z,977.44
2022-11-29T09:07:03.227Z,977.61
2022-11-29T09:08:03.164Z,977.55
2022-11-29T09:09:03.096Z,977.58
2022-11-29T09:10:02.945Z,977.61
2022-11-29T09:11:02.999Z,977.58
2022-11-29T09:12:03.805Z,977.71
2022-11-29T09:13:03.704Z,977.58
2022-11-29T09:14:03.733Z,977.52
2022-11-29T09:15:03.772Z,977.65
2022-11-29T09:16:03.734Z,977.71
2022-11-29T09:17:03.584Z,977.52
2022-11-29T09:18:03.597Z,977.58
2022-11-29T09:19:03.629Z,977.76
2022-11-29T09:20:03.616Z,977.71
2022-11-29T09:21:03.544Z,977.79
2022-11-29T09:22:03.553Z,977.79
2022-11-29T09:23:03.494Z,977.79
2022-11-29T09:24:03.606Z,977.87
2022-11-29T09:25:03.624Z,977.73
2022-11-29T09:26:03.535Z,977.76
2022-11-29T09:27:03.540Z,977.76
2022-11-29T09:28:03.470Z,977.76
2022-11-29T09:29:03.475Z,977.73
2022-11-29T09:30:03.488Z,977.93
2022-11-29T09:31:03.419Z,977.70
2022-11-29T09:32:03.566Z,977.82
2022-11-29T09:33:03.503Z,977.90
2022-11-29T09:34:03.413Z,977.79
2022-11-29T09:35:03.394Z,977.79
2022-11-29T09:36:03.440Z,977.84
2022-11-29T09:37:03.469Z,977.76
2022-11-29T09:38:03.596Z,977.87
2022-11-29T09:39:03.597Z,977.81
2022-11-29T09:40:03.491Z,977.73
2022-11-29T09:41:03.375Z,977.87
2022-11-29T09:42:03.426Z,977.81
2022-11-29T09:43:03.412Z,977.87
2022-11-29T09:44:03.286Z,977.81
2022-11-29T09:45:03.353Z,977.87
2022-11-29T09:46:03.348Z,977.95
2022-11-29T09:47:03.194Z,978.01
2022-11-29T09:48:03.115Z,977.90
2022-11-29T09:49:03.331Z,978.04
2022-11-29T09:50:03.006Z,978.04
2022-11-29T09:51:03.031Z,977.98
2022-11-29T09:52:02.984Z,978.04
2022-11-29T09:53:02.958Z,978.04
2022-11-29T09:54:03.902Z,977.90
2022-11-29T09:55:03.693Z,977.95
2022-11-29T09:56:03.634Z,977.95
2022-11-29T09:57:10.946Z,978.04
2022-11-29T09:58:03.637Z,977.92
2022-11-29T09:59:03.575Z,978.03
2022-11-29T10:00:03.449Z,977.95
2022-11-29T10:01:03.637Z,978.04
2022-11-29T10:02:03.586Z,977.95
2022-11-29T10:03:03.402Z,978.01
2022-11-29T10:04:03.539Z,977.92
2022-11-29T10:05:03.560Z,977.92
2022-11-29T10:06:03.468Z,977.92
2022-11-29T10:07:03.589Z,978.01
2022-11-29T10:08:03.555Z,977.92
2022-11-29T10:09:03.541Z,978.03
2022-11-29T10:10:03.468Z,977.95
2022-11-29T10:11:03.359Z,978.09
2022-11-29T10:12:03.227Z,977.98
2022-11-29T10:13:03.240Z,978.00
2022-11-29T10:14:03.344Z,978.09
2022-11-29T10:15:03.221Z,978.06
2022-11-29T10:16:03.073Z,978.00
2022-11-29T10:17:03.135Z,978.12
2022-11-29T10:18:03.233Z,978.00
2022-11-29T10:19:03.227Z,978.14
2022-11-29T10:20:03.307Z,977.97
2022-11-29T10:21:03.424Z,978.09
2022-11-29T10:22:03.325Z,977.89
2022-11-29T10:23:03.441Z,978.03
2022-11-29T10:24:03.534Z,978.03
2022-11-29T10:25:03.365Z,978.03
2022-11-29T10:26:03.500Z,977.97
2022-11-29T10:27:03.351Z,977.92
2022-11-29T10:28:03.285Z,977.86
2022-11-29T10:29:03.375Z,978.06
2022-11-29T10:30:03.222Z,978.06
2022-11-29T10:31:03.352Z,978.09
2022-11-29T10:32:10.414Z,978.03
2022-11-29T10:33:03.090Z,977.89
2022-11-29T10:34:03.124Z,978.08
2022-11-29T10:35:03.043Z,978.08
2022-11-29T10:36:03.186Z,977.97
2022-11-29T10:37:03.136Z,978.00
2022-11-29T10:38:31.057Z,978.11
2022-11-29T10:39:03.206Z,978.00
2022-11-29T10:40:03.108Z,978.08
2022-11-29T10:41:03.039Z,978.08
2022-11-29T10:42:03.053Z,978.00
2022-11-29T10:43:02.982Z,978.00
2022-11-29T10:44:02.961Z,978.11
2022-11-29T10:45:03.861Z,978.11
2022-11-29T10:46:03.906Z,978.06
2022-11-29T10:47:11.160Z,978.08
2022-11-29T10:48:03.735Z,978.17
2022-11-29T10:49:03.862Z,978.11
2022-11-29T10:50:03.650Z,978.08
2022-11-29T10:51:03.760Z,978.22
2022-11-29T10:52:03.853Z,978.14
2022-11-29T10:53:03.990Z,978.22
2022-11-29T10:54:03.868Z,978.14
2022-11-29T10:55:02.889Z,978.00
2022-11-29T10:56:03.836Z,978.08
2022-11-29T10:57:03.858Z,978.14
2022-11-29T10:58:02.921Z,978.11
2022-11-29T10:59:02.939Z,978.14
2022-11-29T11:00:02.935Z,978.08
2022-11-29T11:01:03.059Z,978.11
2022-11-29T11:02:02.979Z,978.16
2022-11-29T11:03:03.070Z,978.19
2022-11-29T11:04:02.962Z,978.14
2022-11-29T11:05:02.948Z,978.08
2022-11-29T11:06:02.857Z,978.02
2022-11-29T11:07:03.828Z,978.08
2022-11-29T11:08:03.816Z,978.19
2022-11-29T11:09:02.905Z,977.97
2022-11-29T11:10:03.778Z,978.14
2022-11-29T11:11:03.905Z,978.02
2022-11-29T11:12:03.855Z,978.02
2022-11-29T11:13:03.889Z,978.22
2022-11-29T11:14:03.848Z,978.08
2022-11-29T11:15:03.836Z,978.11
2022-11-29T11:16:03.737Z,978.19
2022-11-29T11:17:04.010Z,978.19
2022-11-29T11:18:03.814Z,978.08
2022-11-29T11:19:03.884Z,978.25
2022-11-29T11:20:02.895Z,978.05
2022-11-29T11:21:03.891Z,978.25
2022-11-29T11:22:03.815Z,978.31
2022-11-29T11:23:02.944Z,978.28
2022-11-29T11:24:03.921Z,978.16
2022-11-29T11:25:03.772Z,978.31
2022-11-29T11:26:03.769Z,978.36
2022-11-29T11:27:03.766Z,978.25
2022-11-29T11:28:03.693Z,978.14
2022-11-29T11:29:03.637Z,978.22
2022-11-29T11:30:03.753Z,978.25
2022-11-29T11:31:03.700Z,978.19
2022-11-29T11:32:03.574Z,978.28
2022-11-29T11:33:03.341Z,978.19
2022-11-29T11:34:03.297Z,978.19
2022-11-29T11:35:03.222Z,978.28
2022-11-29T11:36:03.150Z,978.30
2022-11-29T11:37:03.210Z,978.28
2022-11-29T11:38:03.121Z,978.42
2022-11-29T11:39:03.108Z,978.30
2022-11-29T11:40:03.223Z,978.36
2022-11-29T11:41:02.901Z,978.33
2022-11-29T11:42:03.247Z,978.28
2022-11-29T11:43:03.357Z,978.39
2022-11-29T11:44:15.205Z,978.31
2022-11-29T11:45:04.160Z,978.49
2022-11-29T11:46:04.527Z,978.31
2022-11-29T11:47:03.659Z,978.39
2022-11-29T11:48:03.570Z,978.30
2022-11-29T11:49:03.499Z,978.55
2022-11-29T11:50:03.538Z,978.42
2022-11-29T11:51:03.562Z,978.42
2022-11-29T11:52:03.521Z,978.46
2022-11-29T11:53:03.531Z,978.42
2022-11-29T11:54:03.456Z,978.42
2022-11-29T11:55:03.441Z,978.44
2022-11-29T11:56:03.372Z,978.55
2022-11-29T11:57:03.481Z,978.44
2022-11-29T11:58:10.882Z,978.42
2022-11-29T11:59:03.200Z,978.49
2022-11-29T12:00:07.592Z,978.46
2022-11-29T12:01:05.615Z,978.49
2022-11-29T12:02:03.392Z,978.60
2022-11-29T12:03:03.520Z,978.58
2022-11-29T12:04:03.234Z,978.55
2022-11-29T12:05:03.155Z,978.52
2022-11-29T12:06:03.182Z,978.49
2022-11-29T12:07:03.181Z,978.58
2022-11-29T12:08:09.297Z,978.47
2022-11-29T12:09:03.144Z,978.61
2022-11-29T12:10:03.133Z,978.42
2022-11-29T12:11:07.828Z,978.49
2022-11-29T12:12:03.237Z,978.61
2022-11-29T12:13:03.168Z,978.49
2022-11-29T12:14:03.272Z,978.63
2022-11-29T12:15:03.194Z,978.49
2022-11-29T12:16:03.238Z,978.58
2022-11-29T12:17:03.075Z,978.55
2022-11-29T12:18:03.137Z,978.44
2022-11-29T12:19:03.007Z,978.42
2022-11-29T12:20:02.973Z,978.49
2022-11-29T12:21:02.978Z,978.60
2022-11-29T12:22:02.856Z,978.58
2022-11-29T12:23:02.860Z,978.66
2022-11-29T12:24:03.922Z,978.60
2022-11-29T12:25:03.832Z,978.46
2022-11-29T12:26:03.798Z,978.49
2022-11-29T12:27:03.805Z,978.75
2022-11-29T12:28:03.657Z,978.52